Time;durP1;ratioP1;P1;durP2;ratioP2;P2;SDS_P1;SDS_P2;PMS_P1;PMS_P2;Temp;Humidity;BMP_temperature;BMP_pressure;BME280_temperature;BME280_humidity;BME280_pressure;Samples;Min_cycle;Max_cycle;Signal;HPM_P1;HPM_P2
2021/06/30 00:00:10;;;;;;;;;;;21.90;74.40;;;;;;5017701;28;1136;-71
2021/06/30 00:02:35;;;;;;;;;;;21.90;74.40;;;;;;4997379;28;1463;-72
2021/06/30 00:05:00;;;;;;;;;;;21.90;74.40;;;;;;5014760;28;1269;-72
2021/06/30 00:07:26;;;;;;;;;;;21.90;74.40;;;;;;5015201;28;1911;-72
2021/06/30 00:09:51;;;;;;;;;;;21.90;74.40;;;;;;4997824;28;1449;-72
2021/06/30 00:12:17;;;;;;;;;;;21.90;74.40;;;;;;5003940;28;1617;-72
2021/06/30 00:14:42;;;;;;;;;;;21.90;74.40;;;;;;5016753;28;1476;-72
2021/06/30 00:17:08;;;;;;;;;;;21.90;74.40;;;;;;5014978;28;1729;-72
2021/06/30 00:19:33;;;;;;;;;;;21.90;74.40;;;;;;5034864;28;1461;-72
2021/06/30 00:21:59;;;;;;;;;;;21.90;74.40;;;;;;5016734;28;1599;-72
2021/06/30 00:24:24;;;;;;;;;;;21.90;74.40;;;;;;5034002;28;1442;-72
2021/06/30 00:26:50;;;;;;;;;;;21.90;74.40;;;;;;5033387;28;1973;-72
2021/06/30 00:29:15;;;;;;;;;;;21.90;74.40;;;;;;5016334;28;2065;-72
2021/06/30 00:31:40;;;;;;;;;;;21.90;74.40;;;;;;5034580;28;1423;-72
2021/06/30 00:34:06;;;;;;;;;;;21.90;74.40;;;;;;5016353;28;1500;-72
2021/06/30 00:36:35;;;;;;;;;;;21.90;74.40;;;;;;5034620;28;1705;-72
2021/06/30 00:39:00;;;;;;;;;;;21.90;74.40;;;;;;5034186;28;1393;-72
2021/06/30 00:41:26;;;;;;;;;;;21.90;74.40;;;;;;4997316;28;1412;-72
2021/06/30 00:43:51;;;;;;;;;;;21.90;74.40;;;;;;5004202;28;1645;-72
2021/06/30 00:46:37;;;;;;;;;;;21.90;74.40;;;;;;5032905;28;1178;-72
2021/06/30 00:49:02;;;;;;;;;;;21.90;74.40;;;;;;5032093;28;1479;-72
2021/06/30 00:51:28;;;;;;;;;;;21.90;74.40;;;;;;5014490;28;1085;-72
2021/06/30 00:53:54;;;;;;;;;;;21.90;74.40;;;;;;4996411;28;1695;-72
2021/06/30 00:56:23;;;;;;;;;;;21.90;74.40;;;;;;5019738;28;1477;-72
2021/06/30 00:58:52;;;;;;;;;;;21.90;74.40;;;;;;4997199;28;1422;-72
2021/06/30 01:01:18;;;;;;;;;;;21.90;74.40;;;;;;4996364;28;970;-72
2021/06/30 01:03:43;;;;;;;;;;;21.90;74.40;;;;;;5003095;28;1213;-71
2021/06/30 01:06:09;;;;;;;;;;;21.90;74.50;;;;;;5004880;28;1296;-72
2021/06/30 01:08:34;;;;;;;;;;;21.90;74.40;;;;;;5016502;28;1891;-72
2021/06/30 01:11:00;;;;;;;;;;;21.90;74.40;;;;;;5007660;28;1352;-72
2021/06/30 01:13:25;;;;;;;;;;;21.90;74.40;;;;;;5019225;28;1239;-70
2021/06/30 01:15:57;;;;;;;;;;;21.90;74.50;;;;;;5004586;28;1283;-72
2021/06/30 01:18:23;;;;;;;;;;;21.90;74.60;;;;;;5004794;28;1216;-72
2021/06/30 01:20:49;;;;;;;;;;;21.90;74.60;;;;;;4990204;28;1234;-71
2021/06/30 01:23:14;;;;;;;;;;;21.90;74.50;;;;;;5021473;28;1319;-71
2021/06/30 01:25:40;;;;;;;;;;;21.90;74.50;;;;;;5005794;28;1422;-72
2021/06/30 01:28:05;;;;;;;;;;;21.90;74.50;;;;;;5012107;28;1906;-73
2021/06/30 01:30:31;;;;;;;;;;;21.90;74.50;;;;;;5033059;28;1072;-72
2021/06/30 01:32:56;;;;;;;;;;;21.90;74.50;;;;;;5032522;28;1139;-72
2021/06/30 01:35:22;;;;;;;;;;;21.90;74.50;;;;;;5032782;28;1290;-72
2021/06/30 01:37:47;;;;;;;;;;;21.90;74.50;;;;;;5015415;28;1102;-73
2021/06/30 01:40:13;;;;;;;;;;;21.90;74.50;;;;;;5024516;28;1164;-72
2021/06/30 01:42:42;;;;;;;;;;;21.90;74.50;;;;;;4991617;28;1158;-72
2021/06/30 01:45:07;;;;;;;;;;;21.90;74.50;;;;;;5012662;28;1214;-72
2021/06/30 01:47:33;;;;;;;;;;;21.90;74.50;;;;;;5012680;28;1952;-73
2021/06/30 01:49:58;;;;;;;;;;;21.90;74.40;;;;;;4995680;28;1069;-72
2021/06/30 01:52:29;;;;;;;;;;;21.90;74.40;;;;;;5013802;28;1057;-73
2021/06/30 01:54:54;;;;;;;;;;;21.90;74.40;;;;;;5013907;28;1422;-73
2021/06/30 01:57:19;;;;;;;;;;;21.90;74.40;;;;;;5016665;28;1069;-72
2021/06/30 01:59:45;;;;;;;;;;;21.90;74.40;;;;;;5012796;28;1256;-72
2021/06/30 02:02:10;;;;;;;;;;;21.90;74.40;;;;;;4995007;28;1108;-73
2021/06/30 02:04:36;;;;;;;;;;;21.90;74.50;;;;;;5012255;28;1280;-72
2021/06/30 02:07:01;;;;;;;;;;;21.90;74.50;;;;;;4995301;28;1959;-73
2021/06/30 02:09:27;;;;;;;;;;;21.90;74.50;;;;;;5012736;28;1033;-71
2021/06/30 02:11:52;;;;;;;;;;;21.90;74.50;;;;;;5015828;28;1219;-71
2021/06/30 02:14:17;;;;;;;;;;;21.90;74.40;;;;;;5014999;28;1363;-71
2021/06/30 02:16:43;;;;;;;;;;;21.90;74.50;;;;;;5031784;28;1155;-71
2021/06/30 02:19:11;;;;;;;;;;;21.90;74.50;;;;;;5032076;28;1052;-71
2021/06/30 02:21:36;;;;;;;;;;;21.90;74.50;;;;;;5032312;28;1147;-71
2021/06/30 02:24:02;;;;;;;;;;;21.90;74.50;;;;;;5013277;28;1388;-71
2021/06/30 02:26:28;;;;;;;;;;;21.90;74.50;;;;;;5032416;28;1136;-71
2021/06/30 02:28:54;;;;;;;;;;;21.90;74.50;;;;;;5014274;28;1903;-71
2021/06/30 02:31:19;;;;;;;;;;;21.90;74.50;;;;;;5013941;28;1120;-71
2021/06/30 02:33:45;;;;;;;;;;;21.90;74.40;;;;;;4997674;28;1373;-71
2021/06/30 02:36:10;;;;;;;;;;;21.90;74.50;;;;;;4998479;28;1253;-71
2021/06/30 02:38:36;;;;;;;;;;;21.80;74.40;;;;;;5012198;28;1076;-73
2021/06/30 02:41:01;;;;;;;;;;;21.90;74.50;;;;;;4997057;28;1129;-72
2021/06/30 02:43:27;;;;;;;;;;;21.90;74.50;;;;;;5012484;28;1073;-72
2021/06/30 02:45:52;;;;;;;;;;;21.90;74.50;;;;;;5012300;28;1285;-72
2021/06/30 02:48:17;;;;;;;;;;;21.90;74.50;;;;;;5011966;28;1946;-72
2021/06/30 02:50:43;;;;;;;;;;;21.90;74.50;;;;;;5012343;28;1179;-72
2021/06/30 02:53:08;;;;;;;;;;;21.90;74.50;;;;;;5012052;28;1073;-72
2021/06/30 02:55:34;;;;;;;;;;;21.90;74.50;;;;;;5016612;28;1300;-73
2021/06/30 02:57:59;;;;;;;;;;;21.90;74.50;;;;;;5012350;28;1132;-73
2021/06/30 03:00:25;;;;;;;;;;;21.90;74.50;;;;;;5011945;28;1073;-73
2021/06/30 03:02:51;;;;;;;;;;;21.90;74.50;;;;;;4994532;28;1050;-73
2021/06/30 03:05:16;;;;;;;;;;;21.90;74.50;;;;;;5011783;28;1364;-73
2021/06/30 03:07:41;;;;;;;;;;;21.90;74.50;;;;;;5011912;28;1894;-72
2021/06/30 03:10:08;;;;;;;;;;;21.90;74.60;;;;;;5012046;28;1198;-73
2021/06/30 03:12:33;;;;;;;;;;;21.90;74.50;;;;;;5003099;28;1182;-72
2021/06/30 03:14:59;;;;;;;;;;;21.90;74.50;;;;;;4995048;28;1291;-73
2021/06/30 03:17:24;;;;;;;;;;;21.90;74.50;;;;;;5011814;28;1061;-73
2021/06/30 03:19:50;;;;;;;;;;;21.90;74.50;;;;;;5011847;28;1113;-73
2021/06/30 03:22:15;;;;;;;;;;;21.90;74.50;;;;;;5011681;28;1148;-73
2021/06/30 03:24:41;;;;;;;;;;;21.90;74.50;;;;;;5012070;28;1202;-70
2021/06/30 03:27:06;;;;;;;;;;;21.90;74.50;;;;;;5012049;28;1911;-71
2021/06/30 03:29:31;;;;;;;;;;;21.90;74.50;;;;;;5011605;28;1065;-71
2021/06/30 03:31:57;;;;;;;;;;;21.90;74.50;;;;;;5012049;28;1070;-71
2021/06/30 03:34:22;;;;;;;;;;;21.90;74.50;;;;;;5010806;28;1273;-71
2021/06/30 03:36:48;;;;;;;;;;;21.90;74.50;;;;;;5014046;28;1163;-72
2021/06/30 03:39:13;;;;;;;;;;;21.90;74.50;;;;;;5017833;28;1048;-71
2021/06/30 03:41:39;;;;;;;;;;;21.90;74.50;;;;;;4997745;28;1181;-71
2021/06/30 03:44:04;;;;;;;;;;;21.90;74.50;;;;;;5015056;28;1267;-70
2021/06/30 03:46:29;;;;;;;;;;;21.90;74.50;;;;;;4998055;28;1109;-71
2021/06/30 03:48:55;;;;;;;;;;;21.90;74.50;;;;;;5014771;28;1977;-71
2021/06/30 03:51:20;;;;;;;;;;;21.90;74.50;;;;;;4997844;28;1113;-70
2021/06/30 03:53:46;;;;;;;;;;;21.80;74.50;;;;;;5014539;28;1057;-71
2021/06/30 03:56:11;;;;;;;;;;;21.90;74.50;;;;;;5020200;28;1310;-71
2021/06/30 03:58:37;;;;;;;;;;;21.90;74.50;;;;;;5014595;28;1097;-71
2021/06/30 04:01:02;;;;;;;;;;;21.90;74.50;;;;;;4997853;28;1148;-70
2021/06/30 04:03:28;;;;;;;;;;;21.90;74.60;;;;;;4996514;28;1076;-71
2021/06/30 04:05:53;;;;;;;;;;;21.90;74.60;;;;;;5015076;28;1184;-71
2021/06/30 04:08:19;;;;;;;;;;;21.90;74.60;;;;;;5014410;28;1898;-71
2021/06/30 04:10:44;;;;;;;;;;;21.90;74.60;;;;;;5015154;28;1223;-70
2021/06/30 04:13:11;;;;;;;;;;;21.90;74.60;;;;;;5028015;28;1049;-72
2021/06/30 04:15:36;;;;;;;;;;;21.90;74.60;;;;;;5034906;28;1290;-72
2021/06/30 04:18:02;;;;;;;;;;;21.90;74.70;;;;;;5017227;28;1105;-72
2021/06/30 04:20:28;;;;;;;;;;;21.90;74.70;;;;;;5034218;28;1116;-72
2021/06/30 04:22:53;;;;;;;;;;;21.90;74.70;;;;;;5034221;28;1080;-71
2021/06/30 04:25:19;;;;;;;;;;;21.80;74.60;;;;;;5034111;28;1217;-71
2021/06/30 04:27:44;;;;;;;;;;;21.80;74.60;;;;;;5033968;28;1898;-71
2021/06/30 04:30:10;;;;;;;;;;;21.90;74.70;;;;;;5034169;28;1174;-72
2021/06/30 04:32:36;;;;;;;;;;;21.80;74.70;;;;;;5034533;28;1112;-72
2021/06/30 04:35:02;;;;;;;;;;;21.90;74.70;;;;;;5033780;28;1292;-72
2021/06/30 04:37:28;;;;;;;;;;;21.90;74.70;;;;;;5016884;28;1364;-72
2021/06/30 04:39:53;;;;;;;;;;;21.90;74.70;;;;;;5027509;28;1180;-71
2021/06/30 04:42:18;;;;;;;;;;;21.90;74.80;;;;;;5012948;28;2208;-72
2021/06/30 04:44:44;;;;;;;;;;;21.90;74.80;;;;;;5030482;28;1861;-71
2021/06/30 04:47:10;;;;;;;;;;;21.90;74.80;;;;;;5029384;28;1902;-70
2021/06/30 04:49:35;;;;;;;;;;;21.80;74.80;;;;;;5021612;28;1910;-70
2021/06/30 04:52:01;;;;;;;;;;;21.80;74.80;;;;;;5033870;28;938;-69
2021/06/30 04:54:26;;;;;;;;;;;21.90;74.90;;;;;;5024119;28;1217;-69
2021/06/30 04:56:51;;;;;;;;;;;21.90;74.80;;;;;;5019183;28;1184;-69
2021/06/30 04:59:17;;;;;;;;;;;21.80;75.50;;;;;;5025083;28;1157;-68
2021/06/30 05:01:43;;;;;;;;;;;21.90;76.00;;;;;;5019186;28;1052;-69
2021/06/30 05:04:08;;;;;;;;;;;21.80;75.50;;;;;;5013330;28;1692;-69
2021/06/30 05:06:35;;;;;;;;;;;21.90;75.40;;;;;;5014070;28;1167;-69
2021/06/30 05:09:00;;;;;;;;;;;21.90;75.30;;;;;;5013974;28;1902;-69
2021/06/30 05:11:25;;;;;;;;;;;21.90;75.20;;;;;;5014250;28;1320;-69
2021/06/30 05:13:51;;;;;;;;;;;21.90;75.10;;;;;;5013981;28;1217;-69
2021/06/30 05:16:16;;;;;;;;;;;21.80;75.00;;;;;;5033836;28;1147;-68
2021/06/30 05:18:42;;;;;;;;;;;21.90;75.00;;;;;;5033312;28;1115;-68
2021/06/30 05:21:07;;;;;;;;;;;21.90;74.90;;;;;;5015630;28;1108;-69
2021/06/30 05:23:33;;;;;;;;;;;21.90;74.90;;;;;;5032441;28;1116;-69
2021/06/30 05:25:58;;;;;;;;;;;21.90;74.80;;;;;;5033720;28;1279;-69
2021/06/30 05:28:24;;;;;;;;;;;21.90;74.80;;;;;;5032900;28;1918;-69
2021/06/30 05:30:49;;;;;;;;;;;21.90;74.80;;;;;;5016089;28;1049;-69
2021/06/30 05:33:14;;;;;;;;;;;21.90;74.70;;;;;;5032526;28;1124;-69
2021/06/30 05:35:40;;;;;;;;;;;21.90;74.70;;;;;;5032800;28;1290;-69
2021/06/30 05:38:05;;;;;;;;;;;21.90;74.60;;;;;;5033127;28;1168;-69
2021/06/30 05:40:31;;;;;;;;;;;21.90;74.70;;;;;;5004419;28;1128;-69
2021/06/30 05:42:56;;;;;;;;;;;21.90;74.60;;;;;;5012646;28;1061;-69
2021/06/30 05:45:22;;;;;;;;;;;21.90;74.60;;;;;;5013060;28;1277;-70
2021/06/30 05:47:47;;;;;;;;;;;21.90;74.50;;;;;;4995913;28;1898;-69
2021/06/30 05:50:13;;;;;;;;;;;21.90;74.50;;;;;;5013115;28;1112;-69
2021/06/30 05:52:39;;;;;;;;;;;21.90;74.50;;;;;;4996032;28;1133;-69
2021/06/30 05:55:05;;;;;;;;;;;21.90;74.50;;;;;;4997925;28;1228;-70
2021/06/30 05:57:30;;;;;;;;;;;21.80;74.40;;;;;;4997160;28;1097;-70
2021/06/30 05:59:56;;;;;;;;;;;21.90;74.50;;;;;;4994972;28;1069;-70
2021/06/30 06:02:21;;;;;;;;;;;21.80;74.40;;;;;;5013121;28;1112;-70
2021/06/30 06:04:47;;;;;;;;;;;21.90;74.50;;;;;;5012314;28;1212;-70
2021/06/30 06:07:12;;;;;;;;;;;21.90;74.40;;;;;;5012237;28;1899;-70
2021/06/30 06:09:37;;;;;;;;;;;21.80;74.30;;;;;;5012487;28;1179;-70
2021/06/30 06:12:03;;;;;;;;;;;21.80;74.30;;;;;;5017016;28;1215;-69
2021/06/30 06:14:28;;;;;;;;;;;21.90;74.30;;;;;;5023253;28;1295;-66
2021/06/30 06:16:56;;;;;;;;;;;21.90;74.30;;;;;;5027375;28;1065;-67
2021/06/30 06:19:21;;;;;;;;;;;21.90;74.30;;;;;;5030919;28;1151;-67
2021/06/30 06:21:47;;;;;;;;;;;21.90;74.30;;;;;;5031316;28;1100;-67
2021/06/30 06:24:12;;;;;;;;;;;21.80;74.20;;;;;;5030441;28;1279;-67
2021/06/30 06:26:37;;;;;;;;;;;21.90;74.30;;;;;;5030438;28;1183;-67
2021/06/30 06:29:04;;;;;;;;;;;21.90;74.30;;;;;;5031225;28;1902;-66
2021/06/30 06:31:30;;;;;;;;;;;21.90;74.30;;;;;;5030751;28;1174;-67
2021/06/30 06:33:55;;;;;;;;;;;21.90;74.30;;;;;;5030804;28;1447;-67
2021/06/30 06:36:20;;;;;;;;;;;21.80;74.30;;;;;;5013549;28;1119;-67
2021/06/30 06:38:46;;;;;;;;;;;21.90;74.30;;;;;;5030755;28;1148;-66
2021/06/30 06:41:11;;;;;;;;;;;21.90;74.30;;;;;;4994490;28;1164;-73
2021/06/30 06:43:38;;;;;;;;;;;21.90;74.30;;;;;;4994037;28;1156;-71
2021/06/30 06:46:03;;;;;;;;;;;21.90;74.30;;;;;;5012698;28;1188;-73
2021/06/30 06:48:28;;;;;;;;;;;21.90;74.30;;;;;;4994769;28;1894;-73
2021/06/30 06:50:54;;;;;;;;;;;21.90;75.00;;;;;;5012441;28;1183;-73
2021/06/30 06:53:19;;;;;;;;;;;21.90;74.30;;;;;;5013826;28;2090;-73
2021/06/30 06:55:45;;;;;;;;;;;21.90;74.30;;;;;;5025928;28;1255;-73
2021/06/30 06:58:10;;;;;;;;;;;21.90;74.30;;;;;;5021820;28;1162;-73
2021/06/30 07:00:36;;;;;;;;;;;21.90;74.30;;;;;;5012830;28;965;-72
2021/06/30 07:03:01;;;;;;;;;;;21.90;74.30;;;;;;5022012;28;1146;-71
2021/06/30 07:05:27;;;;;;;;;;;21.80;74.20;;;;;;5011383;28;1337;-72
2021/06/30 07:07:52;;;;;;;;;;;21.80;74.20;;;;;;5017256;28;1902;-72
2021/06/30 07:10:17;;;;;;;;;;;21.90;74.30;;;;;;5027828;28;1049;-72
2021/06/30 07:12:43;;;;;;;;;;;21.90;74.20;;;;;;5025708;28;1104;-71
2021/06/30 07:15:10;;;;;;;;;;;21.80;74.20;;;;;;5034708;28;1253;-72
2021/06/30 07:17:35;;;;;;;;;;;21.90;74.30;;;;;;5018159;28;1139;-72
2021/06/30 07:20:02;;;;;;;;;;;21.90;74.30;;;;;;5035577;28;1120;-72
2021/06/30 07:22:27;;;;;;;;;;;21.90;74.20;;;;;;5035894;28;1099;-72
2021/06/30 07:24:53;;;;;;;;;;;21.80;74.10;;;;;;5034250;28;1271;-73
2021/06/30 07:27:18;;;;;;;;;;;21.80;74.20;;;;;;5017793;28;1923;-72
2021/06/30 07:29:44;;;;;;;;;;;21.80;74.10;;;;;;5035413;28;1124;-72
2021/06/30 07:32:09;;;;;;;;;;;21.90;74.20;;;;;;5035836;28;1084;-72
2021/06/30 07:34:34;;;;;;;;;;;21.90;74.20;;;;;;5034500;28;1281;-73
2021/06/30 07:37:00;;;;;;;;;;;21.90;74.20;;;;;;5017894;28;1104;-73
2021/06/30 07:39:25;;;;;;;;;;;21.90;74.20;;;;;;5014810;28;1076;-73
2021/06/30 07:41:51;;;;;;;;;;;21.80;74.10;;;;;;4998624;28;1073;-73
2021/06/30 07:44:17;;;;;;;;;;;21.90;74.20;;;;;;5014816;28;1365;-73
2021/06/30 07:46:42;;;;;;;;;;;21.80;74.10;;;;;;4998263;28;1101;-73
2021/06/30 07:49:08;;;;;;;;;;;21.90;74.20;;;;;;5010806;28;1886;-73
2021/06/30 07:51:33;;;;;;;;;;;21.90;74.20;;;;;;5015219;28;1068;-73
2021/06/30 07:53:58;;;;;;;;;;;21.90;74.20;;;;;;5014164;28;1369;-73
2021/06/30 07:56:33;;;;;;;;;;;21.80;74.10;;;;;;5002507;28;1188;-73
2021/06/30 07:59:17;;;;;;;;;;;21.90;74.20;;;;;;5015137;28;1219;-73
2021/06/30 08:01:42;;;;;;;;;;;21.80;74.10;;;;;;5014704;28;1096;-73
2021/06/30 08:04:08;;;;;;;;;;;21.90;74.20;;;;;;4996793;28;1298;-73
2021/06/30 08:06:35;;;;;;;;;;;21.90;74.10;;;;;;4997682;28;1308;-73
2021/06/30 08:09:01;;;;;;;;;;;21.80;74.10;;;;;;5014936;28;1887;-74
2021/06/30 08:11:26;;;;;;;;;;;21.80;74.10;;;;;;5027672;28;1077;-74
2021/06/30 08:13:52;;;;;;;;;;;21.90;74.10;;;;;;5014413;28;1274;-73
2021/06/30 08:16:17;;;;;;;;;;;21.90;74.10;;;;;;4997585;28;1109;-74
2021/06/30 08:18:43;;;;;;;;;;;21.90;74.10;;;;;;5014576;28;1053;-73
2021/06/30 08:21:08;;;;;;;;;;;21.90;74.10;;;;;;4996876;28;1077;-74
2021/06/30 08:23:34;;;;;;;;;;;21.90;74.10;;;;;;5013349;28;1124;-72
2021/06/30 08:25:59;;;;;;;;;;;21.90;74.10;;;;;;5014363;28;1244;-72
2021/06/30 08:28:26;;;;;;;;;;;21.90;74.10;;;;;;5014413;28;1894;-72
2021/06/30 08:30:52;;;;;;;;;;;21.90;74.10;;;;;;5014540;28;1143;-72
2021/06/30 08:33:17;;;;;;;;;;;21.90;74.10;;;;;;5014387;28;1174;-72
2021/06/30 08:35:42;;;;;;;;;;;21.90;74.10;;;;;;4997187;28;1226;-71
2021/06/30 08:38:08;;;;;;;;;;;21.80;74.00;;;;;;5013881;28;1085;-70
2021/06/30 08:40:34;;;;;;;;;;;21.90;74.10;;;;;;5000072;28;1129;-70
2021/06/30 08:42:59;;;;;;;;;;;21.90;74.10;;;;;;4995941;28;1469;-70
2021/06/30 08:45:25;;;;;;;;;;;21.80;74.00;;;;;;5014413;28;1383;-70
2021/06/30 08:47:52;;;;;;;;;;;21.80;74.00;;;;;;5014163;28;1953;-70
2021/06/30 08:50:17;;;;;;;;;;;21.90;74.10;;;;;;4996074;28;1085;-70
2021/06/30 08:52:45;;;;;;;;;;;21.80;74.00;;;;;;5014194;28;1088;-70
2021/06/30 08:55:12;;;;;;;;;;;21.90;74.10;;;;;;4999637;28;1359;-71
2021/06/30 08:57:38;;;;;;;;;;;21.80;74.00;;;;;;5016363;28;1167;-70
2021/06/30 09:00:04;;;;;;;;;;;21.90;74.10;;;;;;4997156;28;1073;-70
2021/06/30 09:02:30;;;;;;;;;;;21.90;74.10;;;;;;5014255;28;1155;-72
2021/06/30 09:05:11;;;;;;;;;;;21.90;74.10;;;;;;5012975;28;1263;-72
2021/06/30 09:07:36;;;;;;;;;;;21.80;74.00;;;;;;5014372;28;1902;-72
2021/06/30 09:10:02;;;;;;;;;;;21.90;74.10;;;;;;5013757;28;1699;-72
2021/06/30 09:12:39;;;;;;;;;;;21.80;74.00;;;;;;5021650;28;1838;-72
2021/06/30 09:15:15;;;;;;;;;;;21.80;74.00;;;;;;5014958;28;1582;-71
2021/06/30 09:17:41;;;;;;;;;;;21.90;74.10;;;;;;5015793;28;1065;-72
2021/06/30 09:20:07;;;;;;;;;;;21.90;74.10;;;;;;5033171;28;1068;-71
2021/06/30 09:22:40;;;;;;;;;;;21.90;74.00;;;;;;5033591;28;1056;-72
2021/06/30 09:25:06;;;;;;;;;;;21.90;74.00;;;;;;5015163;28;1310;-71
2021/06/30 09:27:39;;;;;;;;;;;21.90;74.10;;;;;;5015494;28;1890;-72
2021/06/30 09:30:05;;;;;;;;;;;21.90;74.10;;;;;;5032802;28;1151;-71
2021/06/30 09:32:30;;;;;;;;;;;21.90;74.10;;;;;;5032679;28;1437;-73
2021/06/30 09:35:16;;;;;;;;;;;21.90;74.10;;;;;;5000748;28;1151;-73
2021/06/30 09:37:41;;;;;;;;;;;21.90;74.10;;;;;;5015843;28;1104;-73
2021/06/30 09:40:08;;;;;;;;;;;21.90;74.00;;;;;;5025051;28;1171;-73
2021/06/30 09:42:33;;;;;;;;;;;21.90;74.10;;;;;;5012904;28;1105;-73
2021/06/30 09:45:12;;;;;;;;;;;21.90;74.10;;;;;;5012865;28;1291;-73
2021/06/30 09:47:44;;;;;;;;;;;21.80;74.00;;;;;;5013660;28;1944;-72
2021/06/30 09:50:09;;;;;;;;;;;21.90;74.10;;;;;;5018964;28;1453;-69
2021/06/30 09:52:39;;;;;;;;;;;21.80;74.00;;;;;;5011460;28;1055;-68
2021/06/30 09:55:21;;;;;;;;;;;21.80;74.00;;;;;;4996882;28;1264;-68
2021/06/30 09:57:46;;;;;;;;;;;21.90;74.10;;;;;;5001538;28;1045;-68
2021/06/30 10:00:12;;;;;;;;;;;21.90;74.10;;;;;;5014655;28;1132;-68
2021/06/30 10:02:38;;;;;;;;;;;21.80;74.00;;;;;;5031615;28;1084;-68
2021/06/30 10:05:03;;;;;;;;;;;21.90;74.10;;;;;;5013592;28;1279;-68
2021/06/30 10:07:29;;;;;;;;;;;21.80;74.00;;;;;;5031459;28;1947;-68
2021/06/30 10:09:54;;;;;;;;;;;21.90;74.00;;;;;;5031784;28;1076;-68
2021/06/30 10:12:23;;;;;;;;;;;21.90;74.00;;;;;;5018671;28;1178;-68
2021/06/30 10:14:50;;;;;;;;;;;21.90;74.00;;;;;;5030739;28;1200;-68
2021/06/30 10:17:16;;;;;;;;;;;21.90;74.00;;;;;;5031986;28;1068;-69
2021/06/30 10:19:42;;;;;;;;;;;21.90;74.00;;;;;;5031315;28;1088;-69
2021/06/30 10:22:09;;;;;;;;;;;21.90;74.00;;;;;;5006193;28;1030;-69
2021/06/30 10:24:34;;;;;;;;;;;21.80;73.90;;;;;;5001625;28;1301;-71
2021/06/30 10:27:00;;;;;;;;;;;21.80;73.90;;;;;;5020529;28;1898;-71
2021/06/30 10:29:26;;;;;;;;;;;21.90;74.00;;;;;;4993768;28;1117;-70
2021/06/30 10:31:54;;;;;;;;;;;21.80;73.90;;;;;;5006431;28;1057;-69
2021/06/30 10:34:21;;;;;;;;;;;21.90;74.00;;;;;;5026161;28;1269;-70
2021/06/30 10:36:52;;;;;;;;;;;21.80;73.90;;;;;;5014305;28;1292;-69
2021/06/30 10:39:19;;;;;;;;;;;21.90;73.90;;;;;;5030602;28;1376;-69
2021/06/30 10:41:53;;;;;;;;;;;21.80;73.90;;;;;;5012079;28;1077;-69
2021/06/30 10:44:20;;;;;;;;;;;21.90;74.00;;;;;;5010542;28;1312;-70
2021/06/30 10:46:46;;;;;;;;;;;21.90;74.00;;;;;;4995134;28;1042;-70
2021/06/30 10:49:17;;;;;;;;;;;21.90;73.90;;;;;;5011822;28;1961;-70
2021/06/30 10:51:43;;;;;;;;;;;21.90;73.90;;;;;;5012601;28;1072;-70
2021/06/30 10:54:27;;;;;;;;;;;21.80;73.90;;;;;;4993643;28;1286;-70
2021/06/30 10:57:11;;;;;;;;;;;21.90;74.00;;;;;;5018245;28;1196;-70
2021/06/30 10:59:55;;;;;;;;;;;21.90;73.90;;;;;;5019767;28;1140;-70
2021/06/30 11:02:21;;;;;;;;;;;21.90;73.90;;;;;;5015564;28;1088;-71
2021/06/30 11:04:46;;;;;;;;;;;21.90;73.90;;;;;;5011713;28;1371;-70
2021/06/30 11:07:32;;;;;;;;;;;21.90;73.90;;;;;;5011951;28;1894;-70
2021/06/30 11:10:00;;;;;;;;;;;21.90;73.90;;;;;;5023361;28;1570;-69
2021/06/30 11:12:44;;;;;;;;;;;21.90;73.90;;;;;;5006873;28;1459;-71
2021/06/30 11:15:09;;;;;;;;;;;21.90;73.90;;;;;;5011552;28;1276;-70
2021/06/30 11:17:37;;;;;;;;;;;21.90;73.90;;;;;;5011947;28;1072;-70
2021/06/30 11:20:03;;;;;;;;;;;21.90;74.00;;;;;;4995000;28;1061;-70
2021/06/30 11:22:28;;;;;;;;;;;21.80;73.90;;;;;;4993583;28;1073;-70
2021/06/30 11:24:54;;;;;;;;;;;21.90;74.00;;;;;;5010987;28;1282;-70
2021/06/30 11:27:21;;;;;;;;;;;21.90;74.00;;;;;;5012541;28;1953;-70
2021/06/30 11:29:47;;;;;;;;;;;21.80;73.90;;;;;;5011446;28;1168;-70
2021/06/30 11:32:31;;;;;;;;;;;21.80;73.80;;;;;;5012417;28;1053;-70
2021/06/30 11:35:22;;;;;;;;;;;21.90;73.90;;;;;;5010606;28;1355;-70
2021/06/30 11:38:14;;;;;;;;;;;21.80;73.80;;;;;;5000788;28;1233;-70
2021/06/30 11:40:46;;;;;;;;;;;21.90;73.80;;;;;;5010221;28;1227;-71
2021/06/30 11:43:12;;;;;;;;;;;21.90;73.80;;;;;;4995109;28;1145;-71
2021/06/30 11:45:38;;;;;;;;;;;21.90;73.80;;;;;;5021832;28;1855;-71
2021/06/30 11:48:04;;;;;;;;;;;21.90;73.90;;;;;;5024826;28;1898;-72
2021/06/30 11:50:42;;;;;;;;;;;21.90;73.80;;;;;;5005224;28;1298;-70
2021/06/30 11:53:08;;;;;;;;;;;21.90;73.80;;;;;;5010265;28;1085;-70
2021/06/30 11:55:38;;;;;;;;;;;21.90;73.80;;;;;;5017479;28;1266;-70
2021/06/30 11:58:04;;;;;;;;;;;21.80;73.80;;;;;;4996863;28;1065;-71
2021/06/30 12:00:30;;;;;;;;;;;21.90;73.80;;;;;;4997983;28;1104;-71
2021/06/30 12:02:56;;;;;;;;;;;21.90;73.80;;;;;;5015373;28;1139;-70
2021/06/30 12:05:23;;;;;;;;;;;21.90;73.80;;;;;;4997929;28;1347;-70
2021/06/30 12:07:48;;;;;;;;;;;21.90;73.80;;;;;;4997598;28;1956;-69
2021/06/30 12:10:14;;;;;;;;;;;21.90;73.80;;;;;;5011079;28;2201;-72
2021/06/30 12:12:39;;;;;;;;;;;21.90;73.80;;;;;;5021705;28;965;-71
2021/06/30 12:15:05;;;;;;;;;;;21.80;73.70;;;;;;5028860;28;1279;-71
2021/06/30 12:17:31;;;;;;;;;;;21.90;73.80;;;;;;5006670;28;1072;-71
2021/06/30 12:19:59;;;;;;;;;;;21.90;73.80;;;;;;5030400;28;1171;-71
2021/06/30 12:22:25;;;;;;;;;;;21.90;73.80;;;;;;5034516;28;1123;-70
2021/06/30 12:24:55;;;;;;;;;;;21.90;73.80;;;;;;5015964;28;1292;-70
2021/06/30 12:27:20;;;;;;;;;;;21.90;73.80;;;;;;5034318;28;1967;-71
2021/06/30 12:29:47;;;;;;;;;;;21.80;73.80;;;;;;5016542;28;1215;-71
2021/06/30 12:32:13;;;;;;;;;;;21.90;73.80;;;;;;5016709;28;1239;-71
2021/06/30 12:34:39;;;;;;;;;;;21.90;73.80;;;;;;5033898;28;1280;-71
2021/06/30 12:37:04;;;;;;;;;;;21.90;73.80;;;;;;5016439;28;1136;-72
2021/06/30 12:39:30;;;;;;;;;;;21.90;73.80;;;;;;5030658;28;1123;-71
2021/06/30 12:41:58;;;;;;;;;;;21.90;73.80;;;;;;5015209;28;1065;-70
2021/06/30 12:44:23;;;;;;;;;;;21.90;73.80;;;;;;5009530;28;1405;-71
2021/06/30 12:47:07;;;;;;;;;;;21.90;73.80;;;;;;5023960;28;1104;-71
2021/06/30 12:49:33;;;;;;;;;;;21.80;73.70;;;;;;5033975;28;1100;-71
2021/06/30 12:51:58;;;;;;;;;;;21.80;73.70;;;;;;5033145;28;1076;-71
2021/06/30 12:54:24;;;;;;;;;;;21.90;73.80;;;;;;5019987;28;1818;-71
2021/06/30 12:56:58;;;;;;;;;;;21.80;73.70;;;;;;5019344;28;1208;-70
2021/06/30 12:59:25;;;;;;;;;;;21.90;73.80;;;;;;5013781;28;1077;-70
2021/06/30 13:01:50;;;;;;;;;;;21.90;73.80;;;;;;5014506;28;990;-70
2021/06/30 13:04:16;;;;;;;;;;;21.90;73.80;;;;;;5013258;28;1281;-70
2021/06/30 13:06:50;;;;;;;;;;;21.90;73.80;;;;;;4996357;28;1343;-70
2021/06/30 13:09:15;;;;;;;;;;;21.90;73.90;;;;;;5000011;28;1980;-70
2021/06/30 13:11:48;;;;;;;;;;;21.90;73.80;;;;;;5008426;28;1258;-70
2021/06/30 13:14:15;;;;;;;;;;;21.80;73.70;;;;;;5013586;28;1278;-71
2021/06/30 13:16:54;;;;;;;;;;;21.80;73.70;;;;;;4996517;28;1140;-70
2021/06/30 13:19:23;;;;;;;;;;;21.90;73.80;;;;;;5013509;28;1155;-70
2021/06/30 13:21:49;;;;;;;;;;;21.90;73.80;;;;;;4996349;28;1077;-71
2021/06/30 13:24:16;;;;;;;;;;;21.90;73.80;;;;;;4995190;28;1231;-71
2021/06/30 13:27:43;;;;;;;;;;;21.80;73.70;;;;;;4995730;28;1085;-71
2021/06/30 13:30:15;;;;;;;;;;;21.80;73.80;;;;;;5002525;28;1205;-70
2021/06/30 13:35:27;;;;;;;;;;;21.80;73.80;;;;;;4998706;28;1382;-69
2021/06/30 13:37:55;;;;;;;;;;;21.80;73.80;;;;;;4995074;28;1124;-70
2021/06/30 13:40:21;;;;;;;;;;;21.90;73.80;;;;;;5016238;28;1116;-69
2021/06/30 13:42:48;;;;;;;;;;;21.80;73.70;;;;;;5013540;28;1123;-70
2021/06/30 13:45:13;;;;;;;;;;;21.80;73.70;;;;;;4995735;28;1221;-70
2021/06/30 13:47:39;;;;;;;;;;;21.80;73.80;;;;;;5012018;28;1870;-71
2021/06/30 13:50:04;;;;;;;;;;;21.80;73.80;;;;;;5007657;28;1088;-70
2021/06/30 13:52:32;;;;;;;;;;;21.90;73.80;;;;;;5012063;28;1074;-71
2021/06/30 13:54:58;;;;;;;;;;;21.90;73.80;;;;;;5013398;28;1311;-72
2021/06/30 13:57:23;;;;;;;;;;;21.80;73.80;;;;;;5016014;28;1187;-71
2021/06/30 13:59:48;;;;;;;;;;;21.90;73.80;;;;;;5012190;28;1111;-70
2021/06/30 14:02:14;;;;;;;;;;;21.80;73.80;;;;;;5011877;28;1123;-69
2021/06/30 14:04:39;;;;;;;;;;;21.80;73.80;;;;;;4994003;28;1278;-69
2021/06/30 14:07:05;;;;;;;;;;;21.90;73.90;;;;;;5011644;28;2235;-70
2021/06/30 14:09:30;;;;;;;;;;;21.80;73.80;;;;;;5011722;28;1061;-70
2021/06/30 14:11:56;;;;;;;;;;;21.90;73.90;;;;;;5015523;28;1183;-70
2021/06/30 14:14:21;;;;;;;;;;;21.80;73.80;;;;;;5031972;28;1300;-70
2021/06/30 14:16:46;;;;;;;;;;;21.90;73.90;;;;;;5031629;28;1135;-70
2021/06/30 14:19:12;;;;;;;;;;;21.80;73.80;;;;;;5030789;28;1053;-70
2021/06/30 14:21:37;;;;;;;;;;;21.90;73.80;;;;;;5029583;28;1123;-70
2021/06/30 14:24:03;;;;;;;;;;;21.90;73.80;;;;;;5030511;28;1310;-70
2021/06/30 14:26:28;;;;;;;;;;;21.90;73.80;;;;;;5032155;28;1151;-70
2021/06/30 14:28:54;;;;;;;;;;;21.90;73.80;;;;;;5031022;28;1955;-70
2021/06/30 14:31:19;;;;;;;;;;;21.80;73.80;;;;;;5028357;28;1162;-70